Time;durP1;ratioP1;P1;durP2;ratioP2;P2;SDS_P1;SDS_P2;PMS_P1;PMS_P2;Temp;Humidity;BMP_temperature;BMP_pressure;BME280_temperature;BME280_humidity;BME280_pressure;Samples;Min_cycle;Max_cycle;Signal;HPM_P1;HPM_P2
2023/08/13 00:01:27;;;;;;;4.68;0.70;;;;;;;18.19;77.01;101722.25;4995419;28;100764;-26
2023/08/13 00:03:53;;;;;;;3.22;0.90;;;;;;;18.20;76.67;101720.38;4996763;28;96654;-26
2023/08/13 00:06:18;;;;;;;2.28;0.65;;;;;;;18.27;76.45;101721.66;4996775;28;96813;-26
2023/08/13 00:08:44;;;;;;;5.53;1.02;;;;;;;18.24;77.58;101722.75;4995641;28;97549;-26
2023/08/13 00:11:11;;;;;;;1.48;0.40;;;;;;;18.20;76.98;101721.25;4996506;28;97797;-26
2023/08/13 00:13:40;;;;;;;1.73;0.65;;;;;;;18.21;76.68;101716.63;4996260;28;96742;-26
2023/08/13 00:16:06;;;;;;;4.07;1.02;;;;;;;18.18;77.05;101708.66;4995155;28;96783;-27
2023/08/13 00:18:32;;;;;;;3.22;0.60;;;;;;;18.17;76.69;101713.28;4994808;28;101139;-26
2023/08/13 00:20:58;;;;;;;6.18;1.02;;;;;;;18.23;76.85;101706.41;4995912;28;98995;-26
2023/08/13 00:23:24;;;;;;;3.50;1.13;;;;;;;18.20;77.22;101714.91;4978506;28;96626;-26
2023/08/13 00:25:50;;;;;;;2.08;0.85;;;;;;;18.19;77.45;101714.03;4995331;28;96897;-26
2023/08/13 00:28:16;;;;;;;5.22;0.82;;;;;;;18.15;77.64;101700.69;4996025;28;97802;-27
2023/08/13 00:30:41;;;;;;;5.68;1.00;;;;;;;18.15;77.03;101701.56;4995962;28;99184;-26
2023/08/13 00:33:06;;;;;;;0.93;0.68;;;;;;;18.12;77.84;101706.44;4995941;28;96752;-26
2023/08/13 00:35:32;;;;;;;3.10;0.80;;;;;;;18.15;77.42;101715.28;4996257;28;96726;-26
2023/08/13 00:37:57;;;;;;;2.80;1.05;;;;;;;18.12;77.76;101718.28;4995755;28;97934;-27
2023/08/13 00:40:23;;;;;;;3.90;0.90;;;;;;;18.12;77.72;101717.41;4995648;28;99170;-26
2023/08/13 00:42:48;;;;;;;1.05;0.45;;;;;;;18.05;79.19;101711.53;4996165;28;96693;-26
2023/08/13 00:45:14;;;;;;;3.10;0.88;;;;;;;18.08;78.53;101713.16;4995997;28;96898;-26
2023/08/13 00:47:39;;;;;;;3.72;0.85;;;;;;;18.03;78.10;101713.50;4995884;28;97955;-26
2023/08/13 00:50:06;;;;;;;2.00;0.98;;;;;;;17.98;78.49;101710.25;4994582;28;101342;-26
2023/08/13 00:52:32;;;;;;;4.65;0.90;;;;;;;17.93;78.35;101705.16;4994656;28;96778;-28
2023/08/13 00:54:58;;;;;;;7.57;0.77;;;;;;;17.96;78.65;101706.78;4993947;28;96824;-26
2023/08/13 00:57:24;;;;;;;2.13;1.02;;;;;;;17.96;78.85;101706.78;4993602;28;100872;-27
2023/08/13 00:59:51;;;;;;;3.78;1.20;;;;;;;17.88;78.89;101703.78;4995431;28;99177;-26
2023/08/13 01:02:17;;;;;;;3.22;0.98;;;;;;;17.88;79.87;101710.13;4994355;28;96532;-26
2023/08/13 01:04:43;;;;;;;3.53;0.82;;;;;;;17.88;79.04;101701.03;4994310;28;96769;-27
2023/08/13 01:07:27;;;;;;;5.30;1.02;;;;;;;17.91;79.75;101714.50;4993425;28;100988;-26
2023/08/13 01:10:29;;;;;;;3.20;0.88;;;;;;;17.91;80.29;101709.88;4995396;28;97805;-26
2023/08/13 01:13:10;;;;;;;2.65;0.82;;;;;;;17.87;79.89;101712.97;4995836;28;96607;-26
2023/08/13 01:15:40;;;;;;;3.97;1.07;;;;;;;17.82;80.64;101714.19;4994579;28;96753;-27
2023/08/13 01:18:07;;;;;;;4.15;1.20;;;;;;;17.76;80.67;101705.56;4993723;28;100682;-26
2023/08/13 01:20:36;;;;;;;4.38;0.90;;;;;;;17.82;80.27;101714.19;4993833;28;101468;-26
2023/08/13 01:23:01;;;;;;;5.07;1.20;;;;;;;17.77;79.85;101707.31;4995092;28;96561;-28
2023/08/13 01:25:28;;;;;;;3.72;0.95;;;;;;;17.76;80.18;101713.78;4995697;28;96681;-27
2023/08/13 01:28:12;;;;;;;5.20;1.00;;;;;;;17.77;80.70;101713.66;4993716;28;101064;-26
2023/08/13 01:30:46;;;;;;;5.80;1.00;;;;;;;17.70;81.20;101706.91;4993647;28;101071;-27
2023/08/13 01:33:27;;;;;;;2.05;0.93;;;;;;;17.74;80.92;101713.03;4994169;28;96693;-26
2023/08/13 01:35:56;;;;;;;4.60;0.80;;;;;;;17.67;81.24;101709.03;4994057;28;96848;-27
2023/08/13 01:38:23;;;;;;;4.68;0.73;;;;;;;17.73;81.59;101716.75;4993380;28;101043;-26
2023/08/13 01:40:49;;;;;;;3.05;1.17;;;;;;;17.67;81.89;101725.47;4993819;28;101196;-26
2023/08/13 01:43:15;;;;;;;5.75;1.23;;;;;;;17.66;82.38;101719.09;4993908;28;96663;-26
2023/08/13 01:45:40;;;;;;;1.08;0.60;;;;;;;17.58;82.20;101702.38;4995282;28;96799;-27
2023/08/13 01:48:06;;;;;;;2.15;0.60;;;;;;;17.62;82.03;101703.91;4994546;28;97893;-26
2023/08/13 01:50:31;;;;;;;2.85;0.82;;;;;;;17.61;81.61;101703.03;4994874;28;97993;-27
2023/08/13 01:52:56;;;;;;;1.92;0.57;;;;;;;17.63;81.72;101719.34;4994952;28;96721;-27
2023/08/13 01:55:22;;;;;;;3.97;0.80;;;;;;;17.66;82.67;101720.97;4995083;28;96847;-27
2023/08/13 01:57:47;;;;;;;3.05;0.85;;;;;;;17.62;82.17;101721.22;4994646;28;97460;-27
2023/08/13 02:00:13;;;;;;;7.68;0.98;;;;;;;17.62;82.51;101712.13;4994478;28;99598;-26
2023/08/13 02:02:38;;;;;;;1.58;0.68;;;;;;;17.60;82.69;101711.38;4995100;28;96638;-26
2023/08/13 02:05:04;;;;;;;2.38;0.82;;;;;;;17.60;81.90;101698.53;4995245;28;96795;-27
2023/08/13 02:07:29;;;;;;;5.65;0.80;;;;;;;17.62;82.88;101703.91;4992699;28;97479;-26
2023/08/13 02:09:55;;;;;;;3.90;0.85;;;;;;;17.61;82.40;101702.13;4994493;28;98013;-27
2023/08/13 02:12:20;;;;;;;3.58;1.15;;;;;;;17.61;82.38;101692.06;4994312;28;96622;-27
2023/08/13 02:14:45;;;;;;;4.88;0.95;;;;;;;17.57;83.29;101693.31;4995156;28;96767;-26
2023/08/13 02:17:12;;;;;;;2.58;0.80;;;;;;;17.58;82.06;101692.28;4994442;28;96833;-26
2023/08/13 02:19:40;;;;;;;4.80;0.63;;;;;;;17.52;82.31;101692.78;4994065;28;99066;-26
2023/08/13 02:22:05;;;;;;;2.70;0.90;;;;;;;17.52;82.68;101691.88;4993345;28;96703;-28
2023/08/13 02:24:31;;;;;;;3.78;0.90;;;;;;;17.57;81.85;101700.66;4994883;28;96767;-26
2023/08/13 02:26:56;;;;;;;3.08;1.00;;;;;;;17.55;82.42;101703.50;4992797;28;99589;-28
2023/08/13 02:29:22;;;;;;;4.75;1.63;;;;;;;17.53;82.35;101696.41;4994692;28;97785;-28
2023/08/13 02:31:47;;;;;;;4.88;1.30;;;;;;;17.48;83.40;101707.72;4994487;28;96456;-26
2023/08/13 02:34:12;;;;;;;3.22;1.00;;;;;;;17.48;82.44;101695.88;4994800;28;96772;-26
2023/08/13 02:36:38;;;;;;;3.10;0.73;;;;;;;17.47;83.40;101702.34;4993919;28;97490;-26
2023/08/13 02:39:03;;;;;;;4.40;1.10;;;;;;;17.45;83.69;101704.31;4994046;28;97297;-26
2023/08/13 02:41:29;;;;;;;3.35;0.98;;;;;;;17.45;83.67;101715.28;4994193;28;96619;-28
2023/08/13 02:43:56;;;;;;;1.65;0.65;;;;;;;17.46;82.79;101706.94;4994337;28;96569;-26
2023/08/13 02:46:25;;;;;;;5.53;1.10;;;;;;;17.48;82.89;101698.63;4992710;28;100896;-27
2023/08/13 02:48:56;;;;;;;1.27;0.55;;;;;;;17.48;83.30;101709.56;4992677;28;101226;-26
2023/08/13 02:51:23;;;;;;;2.22;0.68;;;;;;;17.48;82.91;101701.34;4994608;28;96556;-26
2023/08/13 02:53:48;;;;;;;7.35;1.08;;;;;;;17.47;83.74;101702.34;4993208;28;96665;-29
2023/08/13 02:56:14;;;;;;;1.13;0.50;;;;;;;17.41;83.19;101695.47;4993848;28;97888;-28
2023/08/13 02:58:39;;;;;;;4.47;0.95;;;;;;;17.44;83.39;101692.50;4993968;28;97927;-27
2023/08/13 03:01:05;;;;;;;2.65;0.82;;;;;;;17.45;83.17;101688.78;4993793;28;96645;-27
2023/08/13 03:03:30;;;;;;;2.42;0.63;;;;;;;17.47;83.49;101694.13;4994011;28;96838;-27
2023/08/13 03:05:57;;;;;;;3.60;0.75;;;;;;;17.39;83.23;101689.25;4993739;28;97957;-26
2023/08/13 03:08:22;;;;;;;5.40;1.08;;;;;;;17.43;83.52;101692.63;4993527;28;97943;-27
2023/08/13 03:10:47;;;;;;;2.78;0.73;;;;;;;17.41;84.63;101696.34;4994007;28;96747;-26
2023/08/13 03:13:13;;;;;;;4.55;1.15;;;;;;;17.34;83.72;101686.84;4994366;28;96940;-27
2023/08/13 03:15:38;;;;;;;3.03;0.90;;;;;;;17.33;83.49;101687.84;4993863;28;97968;-26
2023/08/13 03:18:04;;;;;;;3.90;0.98;;;;;;;17.39;83.60;101698.31;4994415;28;97275;-27
2023/08/13 03:20:29;;;;;;;2.03;0.90;;;;;;;17.43;83.09;101692.63;4997134;28;96586;-26
2023/08/13 03:22:55;;;;;;;1.33;0.65;;;;;;;17.38;83.43;101691.09;4997644;28;96818;-26
2023/08/13 03:25:20;;;;;;;1.70;1.05;;;;;;;17.39;84.39;101695.59;4996655;28;98660;-28
2023/08/13 03:27:48;;;;;;;3.10;0.80;;;;;;;17.37;83.30;101686.59;4997284;28;97529;-27
2023/08/13 03:30:14;;;;;;;3.20;0.80;;;;;;;17.37;83.93;101692.09;4995828;28;96596;-27
2023/08/13 03:32:39;;;;;;;4.88;0.82;;;;;;;17.36;83.72;101681.25;4995913;28;96835;-26
2023/08/13 03:35:05;;;;;;;5.85;0.50;;;;;;;17.37;84.49;101681.13;4997039;28;98000;-26
2023/08/13 03:37:31;;;;;;;3.17;0.77;;;;;;;17.35;84.95;101680.41;4995190;28;98940;-28
2023/08/13 03:39:56;;;;;;;1.00;0.70;;;;;;;17.36;84.90;101682.13;4997082;28;96610;-27
2023/08/13 03:42:21;;;;;;;2.63;0.80;;;;;;;17.35;84.52;101685.88;4997716;28;96767;-27
2023/08/13 03:44:47;;;;;;;1.13;0.50;;;;;;;17.37;84.10;101672.03;4996565;28;99303;-26
2023/08/13 03:47:12;;;;;;;1.90;0.82;;;;;;;17.38;84.29;101669.19;4996568;28;99574;-26
2023/08/13 03:49:37;;;;;;;1.83;0.50;;;;;;;17.43;84.26;101681.69;4996819;28;96570;-27
2023/08/13 03:52:03;;;;;;;1.25;0.55;;;;;;;17.37;85.24;101680.25;4997074;28;96772;-26
2023/08/13 03:54:29;;;;;;;2.20;0.57;;;;;;;17.41;84.43;101690.88;4996488;28;97193;-27
2023/08/13 03:56:55;;;;;;;4.15;0.82;;;;;;;17.38;84.43;101698.47;4994987;28;101028;-26
2023/08/13 03:59:20;;;;;;;1.88;0.65;;;;;;;17.29;84.73;101686.34;4996989;28;96669;-26
2023/08/13 04:01:45;;;;;;;3.95;1.00;;;;;;;17.34;85.66;101696.94;4996832;28;96848;-26
2023/08/13 04:04:11;;;;;;;2.70;0.85;;;;;;;17.35;85.30;101696.84;4996618;28;97130;-26
2023/08/13 04:06:36;;;;;;;2.15;0.65;;;;;;;17.34;85.88;101705.16;4995918;28;97784;-26
2023/08/13 04:09:02;;;;;;;2.15;0.68;;;;;;;17.24;86.42;101687.69;4995053;28;96801;-26
2023/08/13 04:11:27;;;;;;;2.95;0.80;;;;;;;17.22;85.71;101690.53;4996766;28;96829;-28
2023/08/13 04:13:53;;;;;;;5.40;0.75;;;;;;;17.25;85.89;101703.97;4996146;28;97432;-27
2023/08/13 04:16:18;;;;;;;3.13;1.17;;;;;;;17.27;85.72;101706.63;4996491;28;97403;-26
2023/08/13 04:18:44;;;;;;;2.22;0.65;;;;;;;17.22;86.96;101706.97;4996471;28;96674;-26
2023/08/13 04:21:09;;;;;;;2.40;0.70;;;;;;;17.22;86.70;101697.88;4996689;28;96724;-26
2023/08/13 04:23:35;;;;;;;3.25;0.60;;;;;;;17.22;86.86;101697.88;4995854;28;98737;-26
2023/08/13 04:26:00;;;;;;;2.72;0.77;;;;;;;17.27;86.07;101715.69;4996289;28;97807;-29
2023/08/13 04:28:25;;;;;;;4.50;0.82;;;;;;;17.22;87.44;101717.91;4996604;28;96648;-27
2023/08/13 04:30:51;;;;;;;4.60;0.70;;;;;;;17.23;88.17;101725.13;4995860;28;96773;-27
2023/08/13 04:33:16;;;;;;;2.53;0.88;;;;;;;17.21;87.11;101718.91;4996064;28;98088;-26
2023/08/13 04:35:42;;;;;;;2.72;0.98;;;;;;;17.22;87.11;101723.38;4995748;28;99728;-28
2023/08/13 04:38:07;;;;;;;2.75;0.70;;;;;;;17.20;86.22;101714.41;4995711;28;96804;-26
2023/08/13 04:40:33;;;;;;;3.63;0.75;;;;;;;17.33;86.04;101722.59;4996351;28;96794;-27
2023/08/13 04:42:58;;;;;;;4.82;0.80;;;;;;;17.32;85.67;101718.94;4995844;28;99268;-26
2023/08/13 04:45:23;;;;;;;4.00;0.82;;;;;;;17.22;87.03;101714.31;4995529;28;99453;-26
2023/08/13 04:47:49;;;;;;;4.20;0.85;;;;;;;17.26;86.54;101718.56;4996121;28;96525;-27
2023/08/13 04:50:14;;;;;;;4.90;1.00;;;;;;;17.27;86.71;101720.31;4996218;28;96763;-26
2023/08/13 04:52:39;;;;;;;3.95;0.90;;;;;;;17.28;87.31;101720.19;4995222;28;99703;-26
2023/08/13 04:55:05;;;;;;;4.55;0.80;;;;;;;17.24;87.47;101718.69;4995780;28;99184;-26
2023/08/13 04:57:31;;;;;;;3.47;0.98;;;;;;;17.26;87.89;101726.78;4995999;28;96690;-26
2023/08/13 04:59:58;;;;;;;5.78;0.80;;;;;;;17.22;87.12;101717.03;4995824;28;96895;-27
2023/08/13 05:02:23;;;;;;;5.50;0.75;;;;;;;17.26;87.43;101730.38;4993681;28;101350;-26
2023/08/13 05:04:48;;;;;;;3.88;1.15;;;;;;;17.31;87.78;101736.38;4995567;28;97338;-26
2023/08/13 05:07:14;;;;;;;4.90;1.10;;;;;;;17.30;87.20;101725.53;4995356;28;96706;-27
2023/08/13 05:09:39;;;;;;;1.52;0.55;;;;;;;17.31;86.94;101717.22;4995779;28;96765;-26
2023/08/13 05:12:05;;;;;;;4.80;0.73;;;;;;;17.36;87.06;101723.22;4995396;28;97942;-27
2023/08/13 05:14:30;;;;;;;2.92;1.27;;;;;;;17.31;87.07;101717.22;4995275;28;99479;-27
2023/08/13 05:16:56;;;;;;;3.05;0.93;;;;;;;17.35;86.99;101718.75;4995523;28;96497;-27
2023/08/13 05:19:21;;;;;;;4.05;0.95;;;;;;;17.29;87.42;101716.47;4995994;28;96858;-28
2023/08/13 05:21:46;;;;;;;3.90;1.08;;;;;;;17.32;87.55;101712.59;4994385;28;97287;-28
2023/08/13 05:24:12;;;;;;;4.28;0.95;;;;;;;17.40;86.71;101719.25;4995224;28;97982;-26
2023/08/13 05:26:37;;;;;;;3.78;1.02;;;;;;;17.39;87.25;101706.53;4994992;28;96691;-26
2023/08/13 05:29:03;;;;;;;2.97;1.33;;;;;;;17.37;87.06;101704.91;4995492;28;96776;-27
2023/08/13 05:31:30;;;;;;;2.28;0.80;;;;;;;17.39;87.12;101717.50;4993746;28;102018;-27
2023/08/13 05:33:57;;;;;;;2.95;0.57;;;;;;;17.44;87.40;101719.00;4993583;28;100690;-27
2023/08/13 05:36:24;;;;;;;0.80;0.52;;;;;;;17.47;88.15;101716.94;4993904;28;97251;-27
2023/08/13 05:38:49;;;;;;;4.70;0.95;;;;;;;17.51;88.07;101714.81;4993635;28;96851;-26
2023/08/13 05:41:14;;;;;;;2.60;1.00;;;;;;;17.58;86.79;101713.34;4995026;28;97882;-26
2023/08/13 05:43:40;;;;;;;3.70;1.15;;;;;;;17.65;87.30;101711.00;4994474;28;97301;-27
2023/08/13 05:46:06;;;;;;;2.33;0.68;;;;;;;17.62;87.24;101702.03;4995176;28;96462;-27
2023/08/13 05:48:31;;;;;;;2.63;0.95;;;;;;;17.69;86.86;101705.16;4995114;28;96820;-27
2023/08/13 05:50:57;;;;;;;2.70;1.23;;;;;;;17.77;86.30;101718.28;4994279;28;97903;-26
2023/08/13 05:53:23;;;;;;;2.40;0.90;;;;;;;17.81;86.89;101714.34;4993258;28;99016;-27
2023/08/13 05:55:50;;;;;;;4.72;0.95;;;;;;;17.87;86.11;101712.97;4994877;28;96507;-26
2023/08/13 05:58:15;;;;;;;4.60;0.88;;;;;;;17.95;85.58;101721.47;4993590;28;96988;-26
2023/08/13 06:00:41;;;;;;;1.80;0.68;;;;;;;17.98;86.57;101726.72;4994595;28;97438;-26
2023/08/13 06:03:06;;;;;;;2.35;0.70;;;;;;;17.96;86.48;101721.34;4994548;28;98864;-26
2023/08/13 06:05:31;;;;;;;3.70;0.60;;;;;;;17.99;86.01;101723.84;4994278;28;96670;-26
2023/08/13 06:07:57;;;;;;;7.13;0.80;;;;;;;18.03;85.86;101725.34;4994994;28;96799;-26
2023/08/13 06:10:23;;;;;;;5.13;1.00;;;;;;;18.00;86.37;101719.25;4994476;28;99449;-27
2023/08/13 06:12:48;;;;;;;1.95;0.70;;;;;;;18.02;86.53;101720.00;4994694;28;97316;-27
2023/08/13 06:15:14;;;;;;;2.28;1.17;;;;;;;18.07;86.76;101727.84;4994414;28;96700;-27
2023/08/13 06:17:42;;;;;;;3.10;1.15;;;;;;;18.10;86.20;101730.34;4994897;28;96685;-27
2023/08/13 06:20:10;;;;;;;5.47;1.27;;;;;;;18.18;86.02;101720.50;4994259;28;98186;-27
2023/08/13 06:22:35;;;;;;;4.95;1.00;;;;;;;18.30;85.51;101715.91;4992912;28;101120;-27
2023/08/13 06:25:00;;;;;;;2.83;0.90;;;;;;;18.37;85.77;101721.78;4994849;28;96504;-26
2023/08/13 06:27:26;;;;;;;2.85;1.02;;;;;;;18.40;85.34;101716.03;4995061;28;96697;-26
2023/08/13 06:29:51;;;;;;;0.90;0.50;;;;;;;18.47;85.32;101720.03;4994466;28;97497;-26
2023/08/13 06:32:16;;;;;;;2.88;0.90;;;;;;;18.63;84.98;101717.78;4994398;28;98872;-27
2023/08/13 06:34:42;;;;;;;5.50;0.68;;;;;;;18.63;84.56;101712.28;4994506;28;96498;-27
2023/08/13 06:37:07;;;;;;;3.00;1.10;;;;;;;18.57;84.70;101700.97;4994928;28;96804;-27
2023/08/13 06:39:32;;;;;;;3.25;0.82;;;;;;;18.72;84.59;101715.31;4993774;28;97418;-26
2023/08/13 06:41:58;;;;;;;1.85;0.80;;;;;;;18.86;84.30;101707.69;4994200;28;97403;-26
2023/08/13 06:44:23;;;;;;;2.38;0.88;;;;;;;19.07;83.26;101715.16;4994327;28;96479;-26
2023/08/13 06:46:49;;;;;;;2.92;1.00;;;;;;;19.24;82.84;101719.22;4994738;28;96806;-26
2023/08/13 06:49:15;;;;;;;2.33;0.60;;;;;;;19.45;82.05;101702.75;4994000;28;99504;-28
2023/08/13 06:51:41;;;;;;;5.22;1.08;;;;;;;19.66;81.40;101722.03;4992507;28;100498;-27
2023/08/13 06:54:07;;;;;;;1.95;0.55;;;;;;;19.84;80.69;101725.13;4996204;28;96488;-27
2023/08/13 06:56:33;;;;;;;1.80;0.75;;;;;;;19.85;80.37;101713.09;4998337;28;96851;-27
2023/08/13 06:58:58;;;;;;;4.95;1.40;;;;;;;19.85;79.88;101719.47;4995946;28;101642;-27
2023/08/13 07:01:24;;;;;;;7.50;0.93;;;;;;;19.76;79.95;101725.78;4997598;28;97654;-26
2023/08/13 07:03:49;;;;;;;1.17;0.70;;;;;;;19.64;80.53;101729.53;4997285;28;96491;-27
2023/08/13 07:06:14;;;;;;;4.53;0.70;;;;;;;19.56;80.08;101724.72;4997321;28;96834;-27
2023/08/13 07:08:40;;;;;;;1.05;0.38;;;;;;;19.40;80.24;101721.53;4996823;28;99098;-26
2023/08/13 07:11:05;;;;;;;1.80;0.57;;;;;;;19.40;80.50;101725.16;4997396;28;97786;-26
2023/08/13 07:13:31;;;;;;;3.45;0.80;;;;;;;19.34;80.19;101714.69;4997352;28;96630;-27
2023/08/13 07:15:57;;;;;;;1.23;0.43;;;;;;;19.46;80.48;101721.88;4997390;28;96756;-27
2023/08/13 07:18:23;;;;;;;1.65;0.50;;;;;;;19.52;79.63;101721.38;4997328;28;97521;-27
2023/08/13 07:20:48;;;;;;;0.75;0.45;;;;;;;19.65;79.13;101725.81;4996075;28;101364;-26
2023/08/13 07:23:13;;;;;;;1.10;0.52;;;;;;;19.79;78.91;101724.66;4997215;28;96623;-26
2023/08/13 07:25:39;;;;;;;2.65;0.75;;;;;;;19.84;77.97;101719.63;4997226;28;96734;-27
2023/08/13 07:28:07;;;;;;;1.52;0.73;;;;;;;20.06;77.56;101732.38;4996457;28;99792;-26
2023/08/13 07:30:32;;;;;;;1.75;0.57;;;;;;;20.30;77.14;101732.94;4995698;28;100720;-26
2023/08/13 07:32:58;;;;;;;1.27;0.57;;;;;;;20.48;75.10;101718.56;4997406;28;96567;-26
2023/08/13 07:35:24;;;;;;;2.33;0.70;;;;;;;20.49;74.86;101732.16;4997111;28;96801;-26
2023/08/13 07:37:49;;;;;;;2.65;0.82;;;;;;;20.54;74.65;101727.13;4995152;28;101275;-26
2023/08/13 07:40:16;;;;;;;2.28;0.75;;;;;;;20.49;75.45;101720.28;4996812;28;98493;-26
2023/08/13 07:42:41;;;;;;;1.40;0.40;;;;;;;20.83;74.84;101726.38;4995596;28;96619;-26
2023/08/13 07:45:07;;;;;;;3.28;0.75;;;;;;;20.84;74.07;101727.28;4997306;28;96859;-27
2023/08/13 07:47:33;;;;;;;2.35;0.40;;;;;;;21.02;73.35;101722.81;4996739;28;97316;-26
2023/08/13 07:50:00;;;;;;;0.95;0.52;;;;;;;21.17;72.07;101723.31;4995374;28;100747;-26
2023/08/13 07:52:25;;;;;;;3.55;0.70;;;;;;;21.39;70.89;101733.19;4995014;28;96676;-28
2023/08/13 07:54:51;;;;;;;2.05;0.50;;;;;;;21.39;71.24;101735.97;4997048;28;96746;-27
2023/08/13 07:57:16;;;;;;;0.65;0.30;;;;;;;21.40;71.50;101726.69;4996691;28;97872;-26
2023/08/13 07:59:41;;;;;;;1.88;0.55;;;;;;;21.40;71.31;101732.22;4995146;28;98089;-26
2023/08/13 08:02:08;;;;;;;1.48;0.75;;;;;;;21.34;72.06;101735.53;4996706;28;96686;-26
2023/08/13 08:04:34;;;;;;;1.05;0.43;;;;;;;21.25;71.52;101737.25;4994593;28;96879;-26
2023/08/13 08:06:59;;;;;;;0.52;0.40;;;;;;;20.97;72.09;101736.16;4995278;28;98141;-26
2023/08/13 08:09:24;;;;;;;1.65;0.52;;;;;;;20.71;71.04;101733.91;4997206;28;97328;-26
2023/08/13 08:11:50;;;;;;;2.65;0.73;;;;;;;20.56;72.30;101743.53;4996682;28;96586;-26
2023/08/13 08:14:15;;;;;;;2.45;0.85;;;;;;;20.40;73.19;101746.75;4996768;28;96760;-26
2023/08/13 08:16:41;;;;;;;4.68;0.85;;;;;;;20.36;72.86;101743.41;4996241;28;97477;-26
2023/08/13 08:19:06;;;;;;;2.20;0.57;;;;;;;20.29;73.15;101742.22;4996163;28;97307;-27
2023/08/13 08:21:31;;;;;;;1.17;0.35;;;;;;;20.19;73.33;101744.03;4996526;28;96660;-26
2023/08/13 08:23:57;;;;;;;1.15;0.32;;;;;;;20.14;73.80;101741.69;4996366;28;96795;-26
2023/08/13 08:26:23;;;;;;;1.90;0.60;;;;;;;20.03;73.35;101736.25;4994768;28;100794;-26
2023/08/13 08:28:48;;;;;;;1.40;0.52;;;;;;;20.04;74.12;101732.50;4996258;28;97801;-26
2023/08/13 08:31:14;;;;;;;0.90;0.47;;;;;;;20.07;74.16;101731.34;4996355;28;96671;-26
2023/08/13 08:33:39;;;;;;;5.78;1.13;;;;;;;20.11;74.28;101732.81;4996643;28;96810;-27
2023/08/13 08:36:05;;;;;;;1.75;0.68;;;;;;;20.10;73.92;101731.09;4995768;28;99496;-28
2023/08/13 08:38:30;;;;;;;3.22;0.60;;;;;;;20.08;73.87;101733.09;4995843;28;98037;-27
2023/08/13 08:40:58;;;;;;;2.17;0.63;;;;;;;20.11;74.57;101730.94;4995513;28;96539;-27
2023/08/13 08:43:28;;;;;;;2.75;0.65;;;;;;;20.17;74.74;101729.53;4994387;28;96980;-26
2023/08/13 08:45:56;;;;;;;2.03;0.80;;;;;;;20.10;74.24;101715.47;4991865;28;101599;-29
2023/08/13 08:48:22;;;;;;;2.40;0.88;;;;;;;20.10;74.29;101731.09;4992945;28;99255;-26
2023/08/13 08:50:48;;;;;;;1.23;0.60;;;;;;;20.05;74.09;101728.75;4994412;28;96627;-27
2023/08/13 08:53:14;;;;;;;1.90;0.73;;;;;;;20.07;74.46;101731.34;4995989;28;96823;-26
2023/08/13 08:55:40;;;;;;;5.35;1.02;;;;;;;20.13;74.36;101730.81;4994339;28;100813;-26
2023/08/13 08:58:07;;;;;;;2.13;0.70;;;;;;;20.21;74.43;101733.75;4994505;28;101180;-27
2023/08/13 09:00:32;;;;;;;1.60;0.73;;;;;;;20.22;73.98;101724.50;4994389;28;96675;-27
2023/08/13 09:02:58;;;;;;;2.22;0.50;;;;;;;20.21;74.34;101724.63;4995639;28;96807;-26
2023/08/13 09:05:24;;;;;;;4.80;0.73;;;;;;;20.18;74.97;101719.41;4995094;28;97845;-31
2023/08/13 09:07:49;;;;;;;7.00;0.80;;;;;;;20.10;75.46;101720.09;4992557;28;97834;-31
2023/08/13 09:10:14;;;;;;;5.28;0.52;;;;;;;20.02;76.22;101723.53;4993546;28;96954;-27
2023/08/13 09:12:41;;;;;;;3.75;0.98;;;;;;;20.04;76.14;101729.75;4993612;28;96758;-27
2023/08/13 09:15:09;;;;;;;2.95;0.65;;;;;;;20.05;76.05;101726.00;4991565;28;101184;-29
2023/08/13 09:17:35;;;;;;;2.08;0.55;;;;;;;20.06;75.54;101719.47;4990926;28;100992;-27
2023/08/13 09:20:09;;;;;;;0.93;0.65;;;;;;;20.05;74.92;101714.13;4993442;28;97098;-27
2023/08/13 09:22:34;;;;;;;0.90;0.50;;;;;;;20.10;74.98;101715.47;4994117;28;96876;-26
2023/08/13 09:25:03;;;;;;;1.83;0.45;;;;;;;20.10;74.03;101715.47;4995428;28;97910;-26
2023/08/13 09:27:29;;;;;;;1.65;0.57;;;;;;;20.18;74.35;101713.91;4995386;28;97848;-26
2023/08/13 09:29:57;;;;;;;1.48;0.60;;;;;;;20.13;74.13;101703.31;4994919;28;96722;-26
2023/08/13 09:32:22;;;;;;;2.63;0.60;;;;;;;20.14;72.77;101708.69;4993992;28;97004;-26
2023/08/13 09:34:51;;;;;;;1.90;0.55;;;;;;;20.09;73.28;101699.97;4995063;28;97937;-26
2023/08/13 09:37:17;;;;;;;1.27;0.55;;;;;;;20.15;73.29;101704.91;4993509;28;100855;-27
2023/08/13 09:39:42;;;;;;;1.48;0.60;;;;;;;20.21;73.48;101706.22;4995457;28;96564;-28
2023/08/13 09:42:08;;;;;;;5.20;0.65;;;;;;;20.25;73.12;101695.84;4995268;28;96857;-27
2023/08/13 09:44:33;;;;;;;0.80;0.57;;;;;;;20.36;73.05;101699.38;4993497;28;101751;-26
2023/08/13 09:47:01;;;;;;;1.08;0.63;;;;;;;20.34;72.64;101689.53;4995400;28;97361;-26
2023/08/13 09:49:30;;;;;;;3.10;0.63;;;;;;;20.38;72.76;101696.50;4993720;28;96631;-26
2023/08/13 09:51:58;;;;;;;2.33;1.05;;;;;;;20.42;73.02;101697.09;4993691;28;96852;-26
2023/08/13 09:54:52;;;;;;;1.65;0.60;;;;;;;20.38;72.04;101693.75;4994091;28;99692;-27
2023/08/13 09:57:21;;;;;;;1.75;0.55;;;;;;;20.34;72.94;101693.13;4993409;28;99084;-26
2023/08/13 09:59:46;;;;;;;2.08;0.57;;;;;;;20.30;72.43;101691.66;4993493;28;96787;-26
2023/08/13 10:02:14;;;;;;;2.25;0.77;;;;;;;20.18;72.66;101694.66;4994060;28;96854;-27
2023/08/13 10:04:40;;;;;;;2.00;0.63;;;;;;;20.14;72.79;101702.28;4993242;28;101036;-26
2023/08/13 10:07:06;;;;;;;1.67;0.88;;;;;;;20.09;72.67;101691.72;4992468;28;101024;-26
2023/08/13 10:09:33;;;;;;;3.15;0.50;;;;;;;20.03;73.64;101695.00;4993243;28;96760;-27
2023/08/13 10:11:59;;;;;;;3.63;0.65;;;;;;;19.92;74.70;101695.94;4993873;28;96839;-26
2023/08/13 10:14:25;;;;;;;2.40;0.68;;;;;;;19.86;75.36;101691.00;4993004;28;101293;-27
2023/08/13 10:16:50;;;;;;;1.05;0.47;;;;;;;19.90;75.30;101702.56;4994605;28;97807;-26
2023/08/13 10:19:17;;;;;;;0.77;0.52;;;;;;;19.89;76.03;101693.47;4994247;28;96680;-26
2023/08/13 10:21:43;;;;;;;2.72;0.93;;;;;;;19.93;76.55;101696.81;4993327;28;96807;-26
2023/08/13 10:24:11;;;;;;;0.60;0.38;;;;;;;19.85;76.20;101685.59;4993160;28;97619;-26
2023/08/13 10:26:41;;;;;;;3.10;0.60;;;;;;;19.88;75.71;101683.47;4992838;28;101199;-26
2023/08/13 10:29:17;;;;;;;0.70;0.57;;;;;;;19.99;76.24;101687.16;4995129;28;96732;-26
2023/08/13 10:31:58;;;;;;;1.20;0.52;;;;;;;20.50;76.03;101686.28;4998110;28;96884;-26
2023/08/13 10:34:53;;;;;;;2.17;0.70;;;;;;;20.76;74.36;101689.41;4997694;28;98167;-27
2023/08/13 10:37:30;;;;;;;1.92;0.68;;;;;;;21.05;73.89;101680.38;4997889;28;99646;-26
2023/08/13 10:39:55;;;;;;;1.77;0.63;;;;;;;21.52;72.43;101684.19;4996692;28;96714;-27
2023/08/13 10:42:26;;;;;;;1.10;0.55;;;;;;;21.70;70.93;101680.72;4998363;28;96747;-26
2023/08/13 10:45:06;;;;;;;4.18;0.73;;;;;;;21.76;71.07;101677.34;4997235;28;98311;-26
2023/08/13 10:47:48;;;;;;;3.22;0.68;;;;;;;22.00;70.31;101663.97;4996283;28;101435;-26
2023/08/13 10:50:32;;;;;;;4.93;0.75;;;;;;;22.39;68.48;101669.38;4996481;28;96669;-26
2023/08/13 10:53:19;;;;;;;1.85;0.80;;;;;;;22.94;68.19;101662.13;4997786;28;96718;-27
2023/08/13 10:55:53;;;;;;;2.22;0.60;;;;;;;23.06;67.33;101660.88;4996199;28;99436;-27
2023/08/13 10:58:39;;;;;;;3.78;0.98;;;;;;;22.92;68.25;101655.88;4996080;28;101292;-26
2023/08/13 11:01:13;;;;;;;1.38;0.60;;;;;;;22.71;67.33;101648.72;4997886;28;96802;-26
2023/08/13 11:03:55;;;;;;;3.25;0.43;;;;;;;22.46;68.10;101647.56;4997918;28;96808;-27
2023/08/13 11:06:22;;;;;;;2.15;0.52;;;;;;;22.35;68.84;101667.06;4996945;28;98965;-27
2023/08/13 11:08:48;;;;;;;2.17;0.73;;;;;;;22.15;69.48;101655.19;4996019;28;101142;-26
2023/08/13 11:11:17;;;;;;;1.77;0.57;;;;;;;21.98;69.24;101654.09;4997236;28;96650;-27
2023/08/13 11:13:43;;;;;;;2.20;0.80;;;;;;;21.86;70.21;101653.41;4996232;28;96912;-26
2023/08/13 11:16:08;;;;;;;3.00;0.55;;;;;;;21.80;70.36;101651.22;4996902;28;98447;-26
2023/08/13 11:18:34;;;;;;;2.60;0.52;;;;;;;21.62;70.65;101649.22;4997031;28;99535;-26
2023/08/13 11:21:00;;;;;;;4.00;0.95;;;;;;;21.48;70.69;101655.19;4997698;28;96571;-26
2023/08/13 11:23:25;;;;;;;3.35;0.75;;;;;;;21.46;71.58;101662.72;4996051;28;96841;-26